Osmond, Nebraska
Current Conditions -  °F | °C
As of 7:56 AM on Thursday 29 Jan 2015 (Local Time) from KOFK Reporting Station
Overcast Overcast  
Wind Chill: 24°   Ceiling: 1800
Heat Index: 36°   Visibility: 10mi
Dew Point: 29°   Wind: 24mph
Humidity: 76%   Direction: 340°NNW
Pressure: 30.32"   Gusts: 29mph
Location:  42.36°N, 97.6°W
Report Text: KOFK 291356Z AUTO 34021G25KT 10SM OVC018 02/M02 A3032 RMK AO2 PK WND 34036/1259 SLP276 T00221017
Loading
Personal Weather Stations






























Interactive Weather Map New forecast layout! Learn more

10-Day Weather Forecast

Advertisements
Track Severe Weather on mobile